createdAt,value
2022-12-09T00:01:48.569Z,1.20
2022-12-09T00:04:34.550Z,1.10
2022-12-09T00:07:20.765Z,1.20
2022-12-09T00:10:07.218Z,1.30
2022-12-09T00:12:54.128Z,1.40
2022-12-09T00:15:41.033Z,1.50
2022-12-09T00:18:26.999Z,1.50
2022-12-09T00:21:20.732Z,1.60
2022-12-09T00:24:07.692Z,1.60
2022-12-09T00:26:53.941Z,1.60
2022-12-09T00:29:39.726Z,1.60
2022-12-09T00:32:26.462Z,1.50
2022-12-09T00:35:12.772Z,1.50
2022-12-09T00:37:59.227Z,1.50
2022-12-09T00:40:45.404Z,1.40
2022-12-09T00:43:31.224Z,1.50
2022-12-09T00:46:17.326Z,1.50
2022-12-09T00:49:03.903Z,1.40
2022-12-09T00:51:49.977Z,1.50
2022-12-09T00:54:36.271Z,1.40
2022-12-09T00:57:22.316Z,1.40
2022-12-09T01:00:09.088Z,1.40
2022-12-09T01:02:55.383Z,1.30
2022-12-09T01:05:41.842Z,1.40
2022-12-09T01:08:27.975Z,1.30
2022-12-09T01:11:24.974Z,1.30
2022-12-09T01:14:11.234Z,1.30
2022-12-09T01:16:57.113Z,1.30
2022-12-09T01:19:42.991Z,1.30
2022-12-09T01:22:29.012Z,1.20
2022-12-09T01:25:16.637Z,1.10
2022-12-09T01:28:03.386Z,1.10
2022-12-09T01:30:49.511Z,1.00
2022-12-09T01:33:36.151Z,1.10
2022-12-09T01:36:24.675Z,1.00
2022-12-09T01:39:11.009Z,1.10
2022-12-09T01:41:56.780Z,1.10
2022-12-09T01:45:03.176Z,1.10
2022-12-09T01:47:51.458Z,1.00
2022-12-09T01:50:39.676Z,1.00
2022-12-09T01:53:28.820Z,1.00
2022-12-09T01:56:27.210Z,0.90
2022-12-09T01:59:14.011Z,0.90
2022-12-09T02:02:01.182Z,1.00
2022-12-09T02:04:49.141Z,1.00
2022-12-09T02:07:37.395Z,0.90
2022-12-09T02:10:23.193Z,0.80
2022-12-09T02:13:49.100Z,0.70
2022-12-09T02:16:43.313Z,0.70
2022-12-09T02:19:44.499Z,0.70
2022-12-09T02:22:39.883Z,0.70
2022-12-09T02:25:26.708Z,0.70
2022-12-09T02:28:12.953Z,0.80
2022-12-09T02:31:02.705Z,0.80
2022-12-09T02:34:09.769Z,0.80
2022-12-09T02:36:59.223Z,0.90
2022-12-09T02:39:49.970Z,0.90
2022-12-09T02:42:38.450Z,0.90
2022-12-09T02:45:26.337Z,0.90
2022-12-09T02:48:15.139Z,0.90
2022-12-09T02:51:04.247Z,1.00
2022-12-09T02:53:58.541Z,1.00
2022-12-09T02:56:58.524Z,1.10
2022-12-09T02:59:47.641Z,1.10
2022-12-09T03:02:36.052Z,1.10
2022-12-09T03:05:30.927Z,1.10
2022-12-09T03:08:36.264Z,1.20
2022-12-09T03:11:23.162Z,1.20
2022-12-09T03:14:25.362Z,1.20
2022-12-09T03:17:26.618Z,1.10
2022-12-09T03:20:15.485Z,1.10
2022-12-09T03:23:03.536Z,1.00
2022-12-09T03:25:52.194Z,0.90
2022-12-09T03:28:40.173Z,0.90
2022-12-09T03:31:28.226Z,0.80
2022-12-09T03:34:17.105Z,0.90
2022-12-09T03:37:04.077Z,0.90
2022-12-09T03:39:51.356Z,0.90
2022-12-09T03:42:41.355Z,0.90
2022-12-09T03:45:27.712Z,0.90
2022-12-09T03:48:13.925Z,0.90
2022-12-09T03:51:02.425Z,0.80
2022-12-09T03:53:48.653Z,0.80
2022-12-09T03:56:38.280Z,0.80
2022-12-09T03:59:25.670Z,0.70
2022-12-09T04:02:11.762Z,0.80
2022-12-09T04:04:57.963Z,0.80
2022-12-09T04:07:44.213Z,0.80
2022-12-09T04:10:31.918Z,0.90
2022-12-09T04:13:18.057Z,0.90
2022-12-09T04:16:04.197Z,0.90
2022-12-09T04:18:50.525Z,0.80
2022-12-09T04:21:36.684Z,0.80
2022-12-09T04:24:22.408Z,0.80
2022-12-09T04:27:10.571Z,0.80
2022-12-09T04:29:56.919Z,1.00
2022-12-09T04:32:44.151Z,1.00
2022-12-09T04:35:30.111Z,1.00
2022-12-09T04:38:16.210Z,1.00
2022-12-09T04:41:02.700Z,0.80
2022-12-09T04:43:51.866Z,1.00
2022-12-09T04:46:37.807Z,1.00
2022-12-09T04:49:23.843Z,1.00
2022-12-09T04:52:09.791Z,0.90
2022-12-09T04:54:57.303Z,1.00
2022-12-09T04:57:43.710Z,1.00
2022-12-09T05:00:30.166Z,1.00
2022-12-09T05:03:17.052Z,1.00
2022-12-09T05:06:04.902Z,0.90
2022-12-09T05:08:51.336Z,1.00
2022-12-09T05:11:37.577Z,1.00
2022-12-09T05:14:23.716Z,1.00
2022-12-09T05:17:10.187Z,1.00
2022-12-09T05:19:56.386Z,1.10
2022-12-09T05:22:42.389Z,1.10
2022-12-09T05:25:28.693Z,1.10
2022-12-09T05:28:14.504Z,1.10
2022-12-09T05:31:01.611Z,1.20
2022-12-09T05:33:48.678Z,1.20
2022-12-09T05:36:34.907Z,1.20
2022-12-09T05:39:21.086Z,1.30
2022-12-09T05:42:07.192Z,1.20
2022-12-09T05:44:54.813Z,1.20
2022-12-09T05:47:40.992Z,1.20
2022-12-09T05:50:27.230Z,1.20
2022-12-09T05:53:13.975Z,1.30
2022-12-09T05:56:00.893Z,1.30
2022-12-09T05:58:47.523Z,1.30
2022-12-09T06:01:34.152Z,1.30
2022-12-09T06:04:20.423Z,1.30
2022-12-09T06:07:06.580Z,1.30
2022-12-09T06:09:53.347Z,1.20
2022-12-09T06:12:40.396Z,1.20
2022-12-09T06:15:32.922Z,1.30
2022-12-09T06:18:19.966Z,1.30
2022-12-09T06:21:10.760Z,1.30
2022-12-09T06:23:57.380Z,1.30
2022-12-09T06:26:43.607Z,1.20
2022-12-09T06:29:29.569Z,1.20
2022-12-09T06:32:15.838Z,1.30
2022-12-09T06:35:02.238Z,1.30
2022-12-09T06:37:51.142Z,1.20
2022-12-09T06:40:40.900Z,1.20
2022-12-09T06:43:27.112Z,1.20
2022-12-09T06:46:18.743Z,1.20
2022-12-09T06:49:04.769Z,1.20
2022-12-09T06:51:50.880Z,1.20
2022-12-09T06:54:37.657Z,1.10
2022-12-09T06:57:23.396Z,1.20
2022-12-09T07:00:09.879Z,1.30
2022-12-09T07:02:56.550Z,1.30
2022-12-09T07:05:42.624Z,1.30
2022-12-09T07:08:29.329Z,1.30
2022-12-09T07:11:15.447Z,1.30
2022-12-09T07:14:01.555Z,1.20
2022-12-09T07:16:48.087Z,1.30
2022-12-09T07:19:34.535Z,1.20
2022-12-09T07:22:20.961Z,1.30
2022-12-09T07:25:07.822Z,1.30
2022-12-09T07:27:54.623Z,1.30
2022-12-09T07:30:40.863Z,1.40
2022-12-09T07:33:27.105Z,1.40
2022-12-09T07:36:17.582Z,1.40
2022-12-09T07:39:08.481Z,1.50
2022-12-09T07:41:58.482Z,1.50
2022-12-09T07:44:49.742Z,1.50
2022-12-09T07:47:36.885Z,1.50
2022-12-09T07:50:23.493Z,1.50
2022-12-09T07:53:09.958Z,1.50
2022-12-09T07:56:01.058Z,1.50
2022-12-09T07:58:48.088Z,1.50
2022-12-09T08:01:35.140Z,1.50
2022-12-09T08:04:20.945Z,1.40
2022-12-09T08:07:07.311Z,1.40
2022-12-09T08:09:56.497Z,1.50
2022-12-09T08:12:42.559Z,1.60
2022-12-09T08:15:28.629Z,1.60
2022-12-09T08:18:14.957Z,1.60
2022-12-09T08:21:04.148Z,1.50
2022-12-09T08:23:50.825Z,1.50
2022-12-09T08:26:40.254Z,1.50
2022-12-09T08:29:26.609Z,1.60
2022-12-09T08:32:12.259Z,1.70
2022-12-09T08:34:59.086Z,1.80
2022-12-09T08:37:45.853Z,1.80
2022-12-09T08:40:31.833Z,1.90
2022-12-09T08:43:17.884Z,2.00
2022-12-09T08:46:04.091Z,2.00
2022-12-09T08:48:49.848Z,2.00
2022-12-09T08:51:36.056Z,2.00
2022-12-09T08:54:23.206Z,2.00
2022-12-09T08:57:09.494Z,2.00
2022-12-09T08:59:55.746Z,2.00
2022-12-09T09:02:42.138Z,2.10
2022-12-09T09:05:28.500Z,2.10
2022-12-09T09:08:15.204Z,2.10
2022-12-09T09:11:01.845Z,2.00
2022-12-09T09:13:49.215Z,2.00
2022-12-09T09:16:37.265Z,2.00
2022-12-09T09:19:26.725Z,2.20
2022-12-09T09:22:13.777Z,2.20
2022-12-09T09:25:00.915Z,2.20
2022-12-09T09:27:47.772Z,2.30
2022-12-09T09:30:34.728Z,2.30
2022-12-09T09:33:21.076Z,2.40
2022-12-09T09:36:10.410Z,2.40
2022-12-09T09:38:58.139Z,2.40
2022-12-09T09:41:52.636Z,2.30
2022-12-09T09:44:40.419Z,2.30
2022-12-09T09:47:49.403Z,2.20
2022-12-09T09:50:37.701Z,2.20
2022-12-09T09:53:30.880Z,2.30
2022-12-09T09:56:17.060Z,2.20
2022-12-09T09:59:26.323Z,2.10
2022-12-09T10:02:12.654Z,2.20
2022-12-09T10:05:07.488Z,2.20
2022-12-09T10:07:57.271Z,2.20
2022-12-09T10:11:02.233Z,2.30
2022-12-09T10:13:57.472Z,2.20
2022-12-09T10:16:44.034Z,2.20
2022-12-09T10:19:30.883Z,2.20
2022-12-09T10:22:22.075Z,2.20
2022-12-09T10:25:27.815Z,2.10
2022-12-09T10:28:25.405Z,2.10
2022-12-09T10:31:11.961Z,2.10
2022-12-09T10:33:58.887Z,2.00
2022-12-09T10:36:46.105Z,2.00
2022-12-09T10:39:33.606Z,2.10
2022-12-09T10:42:38.534Z,2.20
2022-12-09T10:45:24.616Z,2.20
2022-12-09T10:48:33.071Z,2.20
2022-12-09T10:51:24.754Z,2.20
2022-12-09T10:54:12.742Z,2.20
2022-12-09T10:57:04.997Z,2.20
2022-12-09T11:00:09.471Z,2.20
2022-12-09T11:02:56.039Z,2.30
2022-12-09T11:05:43.057Z,2.30
2022-12-09T11:08:30.150Z,2.30
2022-12-09T11:11:16.299Z,2.30
2022-12-09T11:14:02.282Z,2.20
2022-12-09T11:16:49.821Z,2.30
2022-12-09T11:19:37.042Z,2.30
2022-12-09T11:22:40.219Z,2.30
2022-12-09T11:25:28.711Z,2.50
2022-12-09T11:28:17.449Z,2.60
2022-12-09T11:31:32.750Z,2.70
2022-12-09T11:34:27.348Z,2.70
2022-12-09T11:37:13.452Z,2.70
2022-12-09T11:39:59.550Z,2.60
2022-12-09T11:42:52.623Z,2.60
2022-12-09T11:45:38.979Z,2.50
2022-12-09T11:48:36.060Z,2.60
2022-12-09T11:51:27.762Z,2.60
2022-12-09T11:54:20.524Z,2.70
2022-12-09T11:57:12.625Z,2.70
2022-12-09T12:00:01.481Z,2.60
2022-12-09T12:03:02.672Z,2.60
2022-12-09T12:05:50.542Z,2.60
2022-12-09T12:08:44.651Z,2.50
2022-12-09T12:11:42.472Z,2.60
2022-12-09T12:14:29.267Z,2.70
2022-12-09T12:17:21.766Z,2.70
2022-12-09T12:20:10.081Z,2.80
2022-12-09T12:22:58.899Z,2.90
2022-12-09T12:25:48.075Z,2.70
2022-12-09T12:28:40.920Z,2.70
2022-12-09T12:31:26.499Z,2.70
2022-12-09T12:34:25.543Z,2.70
2022-12-09T12:37:11.528Z,2.50
2022-12-09T12:40:03.961Z,2.60
2022-12-09T12:43:18.700Z,2.60
2022-12-09T12:46:18.085Z,2.60
2022-12-09T12:49:16.009Z,2.60
2022-12-09T12:52:21.023Z,2.70
2022-12-09T12:55:23.963Z,2.70
2022-12-09T12:58:27.751Z,2.80
2022-12-09T13:01:29.976Z,2.70
2022-12-09T13:04:20.523Z,2.60
2022-12-09T13:07:19.311Z,2.70
2022-12-09T13:10:13.754Z,2.70
2022-12-09T13:13:01.940Z,2.70
2022-12-09T13:15:49.398Z,2.80
2022-12-09T13:18:37.579Z,2.80
2022-12-09T13:21:24.065Z,2.80
2022-12-09T13:24:27.067Z,2.80
2022-12-09T13:27:22.619Z,2.80
2022-12-09T13:30:31.330Z,2.60
2022-12-09T13:33:17.177Z,2.50
2022-12-09T13:36:21.616Z,2.40
2022-12-09T13:39:11.885Z,2.40
2022-12-09T13:42:16.558Z,2.50
2022-12-09T13:45:05.166Z,2.70
2022-12-09T13:47:53.257Z,2.70
2022-12-09T13:50:40.746Z,2.70
2022-12-09T13:53:32.204Z,2.80
2022-12-09T13:56:21.376Z,2.90
2022-12-09T13:59:22.995Z,2.90
2022-12-09T14:02:34.377Z,2.90
2022-12-09T14:05:23.036Z,2.80
2022-12-09T14:08:19.992Z,2.80
2022-12-09T14:11:25.264Z,2.80
2022-12-09T14:14:23.603Z,2.80
2022-12-09T14:17:25.096Z,2.80
2022-12-09T14:20:14.067Z,2.80
2022-12-09T14:23:12.343Z,2.80
2022-12-09T14:25:59.958Z,2.70
2022-12-09T14:28:52.778Z,2.70
2022-12-09T14:31:57.988Z,2.60
2022-12-09T14:34:45.048Z,2.70
2022-12-09T14:37:37.257Z,2.60
2022-12-09T14:40:39.395Z,2.60
2022-12-09T14:43:49.712Z,2.60
2022-12-09T14:46:37.799Z,2.60
2022-12-09T14:49:26.952Z,2.60
2022-12-09T14:52:31.895Z,2.60
2022-12-09T14:55:18.749Z,2.60
2022-12-09T14:58:05.027Z,2.60
2022-12-09T15:01:02.150Z,2.60
2022-12-09T15:03:56.096Z,2.60
2022-12-09T15:06:42.689Z,2.60
2022-12-09T15:09:28.738Z,2.70
2022-12-09T15:12:15.216Z,2.70
2022-12-09T15:15:06.634Z,2.60
2022-12-09T15:17:52.356Z,2.70
2022-12-09T15:20:40.211Z,2.70
2022-12-09T15:23:34.995Z,2.70
2022-12-09T15:26:26.421Z,2.80
2022-12-09T15:29:22.285Z,2.80
2022-12-09T15:32:19.078Z,2.80
2022-12-09T15:35:16.052Z,2.80
2022-12-09T15:38:05.202Z,2.80
2022-12-09T15:41:11.284Z,2.90
2022-12-09T15:44:00.803Z,2.90
2022-12-09T15:46:47.399Z,2.90
2022-12-09T15:49:37.039Z,2.90
2022-12-09T15:52:26.615Z,2.90
2022-12-09T15:55:15.362Z,2.90
2022-12-09T15:58:03.757Z,2.80
2022-12-09T16:00:50.939Z,2.80
2022-12-09T16:03:38.026Z,2.80
2022-12-09T16:06:28.794Z,2.80
2022-12-09T16:09:16.243Z,2.80
2022-12-09T16:12:02.365Z,2.80
2022-12-09T16:14:48.542Z,2.70
2022-12-09T16:17:51.344Z,2.70
2022-12-09T16:20:42.577Z,2.70
2022-12-09T16:23:31.251Z,2.80
2022-12-09T16:26:20.037Z,2.80
2022-12-09T16:29:07.573Z,2.70
2022-12-09T16:32:12.368Z,2.80
2022-12-09T16:34:59.619Z,2.80
2022-12-09T16:37:57.586Z,2.70
2022-12-09T16:40:43.530Z,2.70
2022-12-09T16:43:30.569Z,2.70
2022-12-09T16:46:16.678Z,2.70
2022-12-09T16:49:05.087Z,2.60
2022-12-09T16:51:50.895Z,2.60
2022-12-09T16:54:37.217Z,2.60
2022-12-09T16:57:22.925Z,2.60
2022-12-09T17:00:09.359Z,2.50
2022-12-09T17:03:00.550Z,2.60
2022-12-09T17:05:48.061Z,2.50
2022-12-09T17:08:34.184Z,2.60
2022-12-09T17:11:21.742Z,2.70
2022-12-09T17:14:08.004Z,2.70
2022-12-09T17:16:54.048Z,2.60
2022-12-09T17:19:41.933Z,2.60
2022-12-09T17:22:27.978Z,2.60
2022-12-09T17:25:13.958Z,2.60
2022-12-09T17:28:04.442Z,2.60
2022-12-09T17:30:50.305Z,2.60
2022-12-09T17:33:36.498Z,2.60
2022-12-09T17:36:22.463Z,2.60
2022-12-09T17:39:09.555Z,2.60
2022-12-09T17:41:55.397Z,2.60
2022-12-09T17:44:41.397Z,2.60
2022-12-09T17:47:28.512Z,2.60
2022-12-09T17:50:14.673Z,2.70
2022-12-09T17:53:00.603Z,2.60
2022-12-09T17:55:46.703Z,2.60
2022-12-09T17:58:32.576Z,2.70
2022-12-09T18:01:20.535Z,2.60
2022-12-09T18:04:10.142Z,2.60
2022-12-09T18:06:56.010Z,2.60
2022-12-09T18:09:41.929Z,2.60
2022-12-09T18:12:28.093Z,2.60
2022-12-09T18:15:14.001Z,2.60
2022-12-09T18:18:00.453Z,2.60
2022-12-09T18:20:46.507Z,2.70
2022-12-09T18:23:32.772Z,2.70
2022-12-09T18:26:19.765Z,2.70
2022-12-09T18:29:05.562Z,2.70
2022-12-09T18:31:55.744Z,2.70
2022-12-09T18:34:41.564Z,2.70
2022-12-09T18:37:27.785Z,2.60
2022-12-09T18:40:13.603Z,2.50
2022-12-09T18:42:59.464Z,2.40
2022-12-09T18:45:45.934Z,2.40
2022-12-09T18:48:32.104Z,2.50
2022-12-09T18:51:18.983Z,2.50
2022-12-09T18:54:06.036Z,2.60
2022-12-09T18:56:51.752Z,2.70
2022-12-09T18:59:37.824Z,2.60
2022-12-09T19:02:24.073Z,2.60
2022-12-09T19:05:10.044Z,2.60
2022-12-09T19:07:56.071Z,2.60
2022-12-09T19:10:41.840Z,2.60
2022-12-09T19:13:27.812Z,2.60
2022-12-09T19:16:13.984Z,2.60
2022-12-09T19:19:05.342Z,2.60
2022-12-09T19:21:55.087Z,2.60
2022-12-09T19:24:43.327Z,2.60
2022-12-09T19:27:29.768Z,2.50
2022-12-09T19:30:15.937Z,2.50
2022-12-09T19:33:01.924Z,2.50
2022-12-09T19:35:47.964Z,2.40
2022-12-09T19:38:34.017Z,2.30
2022-12-09T19:41:20.343Z,2.20
2022-12-09T19:44:06.636Z,2.20
2022-12-09T19:46:53.147Z,2.20
2022-12-09T19:49:41.316Z,2.30
2022-12-09T19:52:27.552Z,2.40
2022-12-09T19:55:13.551Z,2.40
2022-12-09T19:57:59.665Z,2.40
2022-12-09T20:00:45.872Z,2.60
2022-12-09T20:03:31.804Z,2.70
2022-12-09T20:06:19.172Z,2.80
2022-12-09T20:09:06.602Z,2.90
2022-12-09T20:11:53.006Z,2.90
2022-12-09T20:14:39.231Z,2.80
2022-12-09T20:17:25.003Z,2.80
2022-12-09T20:20:11.039Z,2.90
2022-12-09T20:22:56.814Z,2.80
2022-12-09T20:25:42.929Z,2.80
2022-12-09T20:28:29.945Z,2.90
2022-12-09T20:31:20.364Z,2.80
2022-12-09T20:34:07.944Z,2.80
2022-12-09T20:36:53.872Z,2.90
2022-12-09T20:39:39.954Z,2.90
2022-12-09T20:42:26.041Z,2.90
2022-12-09T20:45:12.022Z,2.90
2022-12-09T20:47:58.077Z,2.90
2022-12-09T20:50:44.114Z,2.90
2022-12-09T20:53:30.007Z,3.00
2022-12-09T20:56:16.690Z,3.00
2022-12-09T20:59:02.384Z,3.00
2022-12-09T21:01:48.443Z,3.00
2022-12-09T21:04:34.553Z,3.00
2022-12-09T21:07:21.466Z,3.10
2022-12-09T21:10:08.002Z,3.00
2022-12-09T21:12:54.163Z,3.00
2022-12-09T21:15:40.449Z,3.00
2022-12-09T21:18:26.168Z,3.00
2022-12-09T21:21:12.340Z,3.00
2022-12-09T21:23:58.967Z,3.00
2022-12-09T21:26:48.017Z,3.00
2022-12-09T21:29:34.204Z,2.90
2022-12-09T21:32:20.479Z,2.90
2022-12-09T21:35:06.676Z,3.00
2022-12-09T21:37:56.131Z,3.00
2022-12-09T21:40:42.079Z,2.90
2022-12-09T21:43:28.219Z,2.90
2022-12-09T21:46:15.937Z,3.00
2022-12-09T21:49:04.299Z,3.10
2022-12-09T21:51:50.452Z,3.10
2022-12-09T21:54:38.033Z,3.00
2022-12-09T21:57:24.103Z,3.00
2022-12-09T22:00:10.594Z,3.10
2022-12-09T22:02:56.523Z,3.10
2022-12-09T22:05:43.564Z,3.10
2022-12-09T22:08:29.625Z,3.00
2022-12-09T22:11:16.845Z,3.00
2022-12-09T22:14:02.978Z,3.00
2022-12-09T22:16:48.754Z,3.00
2022-12-09T22:19:34.843Z,3.10
2022-12-09T22:22:21.227Z,3.10
2022-12-09T22:25:07.992Z,3.10
2022-12-09T22:27:54.405Z,3.10
2022-12-09T22:30:40.574Z,3.10
2022-12-09T22:33:27.593Z,3.10
2022-12-09T22:36:13.744Z,3.10
2022-12-09T22:38:59.461Z,3.10
2022-12-09T22:41:46.088Z,3.10
2022-12-09T22:44:32.491Z,3.10
2022-12-09T22:47:18.429Z,3.00
2022-12-09T22:50:04.587Z,3.00
2022-12-09T22:52:50.306Z,3.10
2022-12-09T22:55:36.231Z,3.10
2022-12-09T22:58:22.411Z,3.00
2022-12-09T23:01:09.956Z,3.00
2022-12-09T23:03:56.477Z,3.00
2022-12-09T23:06:42.351Z,3.00
2022-12-09T23:09:28.327Z,3.10
2022-12-09T23:12:14.482Z,3.10
2022-12-09T23:15:00.164Z,3.00
2022-12-09T23:17:46.140Z,3.10
2022-12-09T23:20:32.308Z,3.10
2022-12-09T23:23:18.070Z,3.10
2022-12-09T23:26:05.172Z,3.00
2022-12-09T23:28:52.412Z,2.90
2022-12-09T23:31:38.309Z,2.80
2022-12-09T23:34:24.093Z,2.90
2022-12-09T23:37:10.108Z,3.00
2022-12-09T23:39:56.104Z,3.00
2022-12-09T23:42:42.022Z,3.10
2022-12-09T23:45:28.004Z,3.20
2022-12-09T23:48:13.981Z,3.20
2022-12-09T23:51:08.596Z,3.20
2022-12-09T23:53:56.085Z,3.20
2022-12-09T23:56:44.097Z,3.20
2022-12-09T23:59:30.058Z,3.10
